SMRA70 UAOL 210900
AAXX 21091
71001 45966 01320 10048 21010 39111 40066 57001 333 6///7=
71002 45966 01301 11262 21303 39630 40196 57005 333 6///7=
71003 45466 81301 11135 21176 39712 40101 57035 333 6///7=
71005 26/// ///// 11049 21054 333 60007=
71006 26/// /2402 11006 21018 333 60007=
71007 26/// /3110 11002 21011 333 60007=
71008 26/// /0401 11008 21014 333 60007=
71009 26/// /3304 11032 21036 333 60007=
71010 26/// /3001 10032 21018 333 60007=
71011 26/// ///// 10052 21006 333 60007=
71012 26/// /1702 10024 20020 333 60007=
71013 26/// /0303 11017 21018 333 60007=
71014 26/// /1803 11016 21036 333 60007=
71015 46/// ///// 10065 333 6///7=
71016 46/// ///// 10025 333 6///7=
71017 26/// /2710 11315 21349 30146 40161 53015 333 60007=
71018 26/// /3406 11361 21396 30008 40100 51023 333 60007=
71020 46/// /0402 11033 21046 39921 40172 58017 333 6///7=
71021 46/// /0000 11053 21059 39841 40189 58013 333 6///7=
71022 45966 00701 10039 20017 30068 40111 57007 333 6///7=
71023 25964 00406 10039 21073 39465 40228 52017 333 60007=
71024 26/// /1003 10047 21028 39877 40235 51006 333 60007=
71026 26/// /2001 11005 21020 39351 40201 55000 333 60007=
71027 26/// /2506 11014 21098 30234 40247 56002 333 60007=
71028 26/// /0000 11031 21050 39161 40194 52005 333 60007=
71029 26/// /3505 11232 21253 30188 40229 51003 333 60007=
71030 26/// /2105 10004 21009 30156 40254 56012 333 60007=
71031 46/// /2507 10119 20043 30116 40139 53017 333 6///7=
71033 26/// /2902 11017 21052 39605 40235 53021 333 60007=
71035 26/// /2707 11036 21036 333 60007=
71036 45966 02812 10029 20014 39796 40171 57003 333 6///7=
71038 26/// /2504 11031 21072 30170 40224 56008 333 60007=
71040 46/// /0903 10015 21038 39962 40161 56012 333 6///7=
71041 45966 02506 11046 21110 30126 40271 57003 333 6///7=
71042 26/// /1003 10028 20028 30141 40145 51019 333 60007=
71047 26/// ///// 10002 21011 333 60007=
71057 26/// /0000 11001 21007 333 60007=
71061 26/// /0000 11046 21064 39428 40204 53005 333 60007=
71063 26/// /0602 10012 21031 30078 40176 58013 333 60007=
71064 461// 83227 11213 21243 39991 40213 52026 333 6///7=
71065 26/// ///// 11056 21061 333 60007=
71067 26/// ///// 11027 21037 333 60007=
71070 26/// /0706 11003 21017 333 60007=
71088 461// 83207 11268 21296 39944 49999 54000 333 6///7=
71089 26/// ///// 11019 21024 333 60007=
71099 47458 83117 11009 21020 39957 49977 52006 7714/ 333 6///7=
71107 46/// /0306 10071 20043 30002 40111 56001 333 6///7=
71110 26/// ///// 11031 21051 30195 40256 53006 333 60007=
71118 26/// /3402 11020 21040 39386 40212 51006 333 60007=
71144 46/// /2404 11018 21033 39842 40153 55010 333 6///7=
71149 26/// /3112 10095 21021 39731 40158 55003 333 60007=
71152 46/// /2606 11035 21069 30240 40253 53008 333 6///7=
71156 26/// /2803 11033 21076 39125 40215 51005 333 60007=
71159 26/// /2004 11040 21062 30156 40230 53009 333 60007=
71171 27/// /1003 10030 20020 30049 40145 58023 7//4/ 333 69927=
71172 26/// ///// 10012 20003 39927 40144 58018 333 60007=
71174 47307 83433 11123 21135 30064 40078 52044 729// 333 6///7=
71175 26/// /3403 11057 21118 30233 40269 55002 333 60007=
71178 26/// /2521 11035 21079 30194 40227 51018 333 60007=
71190 46/// /2805 10001 21026 333 6///7=
71191 26/// /3201 11024 21036 333 60007=
71192 45966 02701 11029 21045 39519 40180 52007 333 6///7=
71195 46/// /1219 10049 21010 39123 40077 50000 333 6///7=
71199 26/// /1204 11015 21054 39342 40174 58003 333 60007=
71202 26/// ///// 11025 21034 333 60007=
71204 26/// /0701 11063 21069 39230 40228 55000 333 60007=
71209 46/// /1209 10107 20053 333 6///7=
71212 26/// /0000 11097 21114 39373 40191 56007 333 60007=
71213 26/// /2108 10011 20001 39840 40140 58013 333 60007=
71214 26/// /0000 11010 21011 333 60007=
71217 26/// /3110 11001 21006 333 60007=
71220 46/// /0202 10078 20057 333 6///7=
71221 26/// /0403 10040 21066 333 60007=
71223 26/// /3207 10011 21006 333 60007=
71224 26/// /2303 10006 21041 333 60007=
71225 26/// /1605 11025 21037 333 60007=
71226 26/// /1103 11034 21045 333 60007=
71227 46/// /2803 11035 21049 333 6///7=
71228 46/// /2205 11020 21025 333 6///7=
71229 46/// /3505 11015 21062 333 6///7=
71233 26/// /0000 11013 21062 333 60007=
71237 46/// /0000 11032 21040 333 6///7=
71257 26/// /0601 11034 21041 333 60007=
71258 26/// /2809 11002 21042 333 60007=
71259 26/// /0505 11019 333 60007=
71264 26/// /1503 11044 21083 30248 40280 55006 333 60007=
71267 45966 02708 11016 21029 39110 40202 52006 333 6///7=
71268 26/// /0000 11030 21037 39544 40164 58002 333 60007=
71269 26/// /0000 10004 21013 333 60007=
71274 26/// /0908 10061 21053 333 60007=
71275 26/// /0506 10019 21038 333 69957=
71276 26/// /0402 10013 21015 333 60007=
71277 26/// /1605 10013 21065 333 60007=
71278 26/// /0000 11047 21052 333 60007=
71279 27/// /0805 11034 21043 30114 40181 58008 7//44 333 60017=
71286 26/// /1502 11059 21066 333 60007=
71287 26/// /0406 10016 21064 333 60007=
71288 26/// /3416 11201 21222 30151 40176 53026 333 60007=
71289 26/// /2005 10011 21010 333 60007=
71291 26/// /2101 10007 21002 39859 40147 58019 333 60007=
71292 45966 22805 10008 21002 39588 40195 54000 333 6///7=
71293 47756 73211 11337 21373 30008 40021 52006 771// 333 6///7=
71294 26/// /0000 11009 21029 39761 40164 58015 333 60007=
71295 26/// /2305 11008 21030 39677 40121 58033 333 60007=
71296 26/// /1504 10021 20008 39842 40147 56019 333 60007=
71297 26/// /0703 10029 20029 30025 40149 57019 333 69987=
71298 26/// /1806 10037 20033 39891 40121 57013 333 69927=
71299 26/// /2302 11004 21007 39850 40120 58019 333 60007=
71300 26/// /1703 10031 21053 30053 40176 57012 333 60007=
71301 26/// ///// 10011 20006 39738 40135 58011 333 60007=
71302 26/// /1702 11023 21052 39357 40173 53003 333 60007=
71303 26/// ///// 10042 20039 39908 40124 56021 333 60027=
71304 26/// /0403 10009 21061 38761 40201 51006 333 60007=
71305 45966 00807 10033 21025 39954 40243 52012 333 6///7=
71306 47/12 /1816 11144 21167 39917 49950 57071 771// 333 6///7=
71307 27/// /1307 10025 20022 39884 40135 58021 7//4/ 333 60017=
71308 26/// /2010 11030 21099 30185 40271 55002 333 60007=
71309 26/// /2001 11107 21117 30100 40112 58027 333 60007=
71310 26/// /2110 11021 21047 30217 40255 55003 333 60007=
71311 26/// /1807 11018 21037 30233 40258 56006 333 60007=
71312 26/// /3605 10011 21048 39750 40210 53024 333 60007=
71314 26/// /1003 10010 21011 39805 40157 57017 333 60007=
71315 26/// /2803 11002 21081 30147 40201 56006 333 60007=
71316 26/// /0000 11005 21064 39538 40221 53017 333 60007=
71317 26/// /0302 11085 21102 30230 40278 55000 333 60007=
71318 26/// /3601 11008 21019 39271 40220 53007 333 69947=
71320 26/// /2910 11337 21367 30009 40009 53003 333 60007=
71321 27/// /2103 11288 21322 39989 40034 58018 7//4/ 333 69907=
71322 26/// /3432 11126 21134 30068 40081 51044 333 60007=
71324 46/// /2306 11027 21067 30239 40277 55007 333 6///7=
71327 46/// /2203 11027 21070 30207 40271 56006 333 6///7=
71328 46/// /0000 11018 21062 30274 40279 55005 333 6///7=
71331 26/// /2602 10025 21045 39828 40194 52024 333 60007=
71332 26/// /2105 11168 21199 30217 40247 58001 333 60007=
71334 26/// /3214 11043 21075 39834 40162 51045 333 60007=
71335 459// ///// 333 6///7=
71336 46/// /2520 11030 21077 30171 40194 53009 333 6///7=
71337 26/// /3405 11086 21101 39964 40208 51025 333 60007=
71338 45966 01404 11298 21354 30009 40017 52004 333 6///7=
71339 45966 01601 11168 21241 30191 40205 52019 333 6///7=
71340 26/// /1101 11064 21071 333 60007=
71341 26/// /3103 11010 21037 333 60007=
71342 26/// /2309 10040 20004 333 60007=
71343 26/// /1403 11001 21019 333 60007=
71344 26/// /0000 10035 20007 333 60007=
71345 26/// /2703 11007 21027 333 60007=
71346 26/// /1708 10008 21016 333 60007=
71347 26/// /0509 10015 21058 333 69967=
71348 46/// /0000 11042 21058 333 6///7=
71349 26/// /1005 10014 21062 333 60007=
71351 46/// /0202 11049 21061 333 6///7=
71352 26/// /1102 10006 20002 39693 40148 56018 333 60027=
71353 26/// /2305 10008 21016 333 60007=
71354 26/// /3402 10004 21049 333 60007=
71355 27/// /0029 11238 21261 39918 40006 57003 7//44 333 60017=
71356 26/// /3428 11158 21185 30040 40107 50030 333 60007=
71357 26/// /1303 11300 21359 30010 40017 51004 333 60007=
71358 26/// /2703 11337 21376 39975 40011 51003 333 60007=
71359 26/// /2801 11038 21041 333 60007=
71360 26/// ///// 11032 21052 333 60007=
71361 26/// /0903 11020 21045 30032 40240 58005 333 60007=
71362 26/// /1001 11023 21046 39991 40245 52010 333 60007=
71363 26/// /3314 11200 21222 30047 40102 52021 333 60007=
71364 26/// /1307 11068 21143 39951 40084 56040 333 60007=
71365 26/// /1104 10020 21038 39998 40209 58014 333 60007=
71366 47766 71401 11207 21229 39907 49970 57009 771// 333 6///7=
71367 26/// /2102 11042 21058 30010 40219 53012 333 60007=
71369 45966 01604 11015 21049 39514 40225 52013 333 6///7=
71380 26/// /3102 11026 21048 333 60007=
71393 26/// /3204 11004 21042 38948 40212 53005 333 60007=
71399 26/// /3202 10007 21002 333 60007=
71401 26/// /3304 10027 21022 39525 40208 53010 333 60007=
71404 46/// ///// 11038 21062 39975 40242 53017 333 6///7=
71405 26/// ///// 11026 21041 333 60007=
71406 26/// /1805 11135 21170 30202 40212 52019 333 60007=
71409 26/// ///// 10024 21018 333 69947=
71413 26/// ///// 10010 21002 333 60007=
71449 26/// /2104 11030 21040 39765 40170 58024 333 60007=
71467 46/// /1011 11215 21233 30091 40210 58014 333 6///7=
71470 46/// /2206 11170 21190 39621 40262 333 6///7=
71471 45966 01601 11021 21041 39418 40209 57001 333 6///7=
71480 26/// /1306 10017 21039 39967 40087 58038 333 60007=
71489 26/// /0205 11027 21039 39423 40222 53007 333 60007=
71491 26/// /0806 39968 57042 333 60007=
71493 26/// /0000 11078 21087 30223 40262 56008 333 60007=
71494 26/// /2003 11034 21079 39674 40200 56008 333 60007=
71495 26/// /3107 10004 21045 333 60007=
71497 26/// /2401 11027 21040 39929 40192 58013 333 60007=
71500 46/// /2802 10015 21072 333 6///7=
71504 26/// ///// 11040 21073 333 60007=
71506 46/// /0202 11073 21096 39165 40061 58022 333 6///7=
71508 26/// ///// 10038 20015 30017 40155 58017 333 60007=
71509 26/// /2805 11008 21024 333 60007=
71515 26/// /2604 11012 21018 39497 40199 50002 333 60007=
71517 26/// /2706 10004 21020 333 60007=
71518 26/// /3104 11017 21019 333 60007=
71519 26/// /1706 10014 21010 333 60007=
71525 26/// /2402 10026 21005 333 60007=
71526 26/// /0000 10034 20017 333 60007=
71528 26/// /3305 11002 21015 333 60007=
71532 45566 81203 10009 21015 39812 40157 57016 333 6///7=
71533 26/// /0701 10004 21011 30105 40149 51014 333 60007=
71534 27340 81303 10018 20016 39881 40152 56018 761// 333 60007=
71535 26/// /1711 10021 21008 333 60007=
71536 26/// /2304 10011 21010 333 60007=
71537 26/// /0404 11041 21046 333 60007=
71539 26/// /0000 11025 21042 39519 40216 55001 333 60007=
71540 26/// /2603 11050 21059 333 60007=
71541 26/// /1805 10024 21069 333 60007=
71543 26/// /0205 11033 21068 333 60007=
71544 26/// ///// 10047 21068 333 60007=
71545 46/// ///// 11044 21061 333 6///7=
71546 26/// /2504 11016 21030 333 60007=
71547 26/// /0603 11002 21063 333 60007=
71548 26/// ///// 10017 21058 333 60007=
71549 26/// ///// 11013 21062 333 60007=
71553 26/// /2403 11017 21019 39531 40190 53001 333 60007=
71554 26/// /1809 10015 21059 30176 40182 58008 333 60007=
71555 26/// /3411 10060 21008 38657 40204 53008 333 60007=
71556 26/// /1902 11030 21037 39603 40208 53006 333 60007=
71557 46/// /1203 11006 21024 333 6///7=
71558 26/// ///// 11166 21217 30174 40212 51026 333 60007=
71559 26/// /2307 11016 21024 39505 40209 58009 333 60007=
71560 26/// /1909 11042 21053 39873 40176 58021 333 60007=
71565 26/// /3402 11064 21076 333 60007=
71566 26/// /0000 10037 21062 333 60007=
71567 26/// /1001 11033 21042 333 60007=
71570 26/// /2404 11001 21035 39835 40146 56023 333 60007=
71572 46/// /3507 10028 21019 39884 40111 51027 333 6///7=
71574 45966 82106 11019 21089 30141 40215 57007 333 6///7=
71575 26/// /1401 11207 21228 39901 49967 57009 333 69907=
71576 26/// ///// 11344 21383 39932 40021 51011 333 60007=
71581 26/// /0000 11008 21024 39680 40162 58013 333 60007=
71584 45566 70610 11085 21160 30164 40213 52007 333 6///7=
71590 26/// /0902 11044 21085 30010 40203 56006 333 60007=
71592 26/// /0902 11307 21338 30026 40040 53018 333 60007=
71594 26/// /2301 10029 21048 39737 40199 58004 333 60007=
71595 45966 02211 11001 21027 30294 40295 57002 333 6///7=
71596 26/// /2603 11084 21108 30246 40265 55000 333 60007=
71598 26/// /2006 11008 21090 30201 40207 56008 333 60007=
71602 26/// /0905 10018 20018 39843 40141 56020 333 69947=
71606 26/// /1403 11011 21049 30045 40237 56015 333 60007=
71613 26/// /1305 11343 21377 30067 40081 50000 333 60007=
71615 46/// /1817 11090 21150 39974 40013 58055 333 6///7=
71622 26/// ///// 10018 20014 39800 40137 58018 333 60017=
71635 46/// /1703 11001 21022 30073 40178 56012 333 6///7=
71636 26/// /2901 11036 21053 39432 40212 52007 333 60007=
71637 26/// /2001 11005 21013 39388 40215 53007 333 60007=
71640 26/// /1703 11022 21025 39650 40143 58011 333 60007=
71641 46/// ///// 11192 21223 39659 49954 56026 333 6///7=
71644 26/// ///// 10011 21024 39646 40194 50011 333 60007=
71645 26/// /3302 11013 21045 39644 40174 51014 333 60007=
71646 26/// /1911 11028 21048 39853 40159 58027 333 60007=
71652 45966 82208 11003 21033 39857 40082 57040 333 6///7=
71653 45966 82110 11040 21070 30042 40054 57053 333 6///7=
71654 26/// /0002 10032 21070 39466 40203 53014 333 60007=
71655 26/// /3406 11007 21032 39533 40206 53013 333 60007=
71656 26/// /2106 11022 21042 30176 40249 56011 333 60007=
71658 26/// /1908 10022 21063 30104 40173 58006 333 60007=
71659 26/// ///// 11004 21067 30197 40200 56007 333 60007=
71660 26/// /2404 10018 21039 39126 40203 52007 333 60007=
71663 26/// /2802 11006 21029 39444 40210 51014 333 60007=
71664 45966 01101 11018 21033 39386 40213 52003 333 6///7=
71665 46/// ///// 11160 21261 30125 40135 53003 333 6///7=
71666 26/// /2209 11011 21052 30189 40234 56010 333 60007=
71667 26/// /2605 10010 21007 39915 40162 58015 333 60007=
71668 26/// /1303 11060 21069 30196 40240 56012 333 60007=
71669 26/// /2403 11029 21072 38603 40219 53005 333 60007=
71670 26/// /2105 11021 21060 30208 40234 56007 333 60007=
71671 26/// /2702 11049 21072 30202 40264 56009 333 60007=
71672 26/// /0501 10005 21024 39901 40166 56014 333 60007=
71673 26/// ///// 11036 21047 333 60007=
71674 26/// /2104 11005 21015 333 60007=
71678 45966 72609 10016 21017 39714 40056 57018 333 6///7=
71679 26/// /1601 11045 21064 39158 40180 55001 333 60007=
71681 26/// /1801 10035 21013 39790 40184 52019 333 60007=
71684 47559 82009 10010 20009 39842 40143 57013 710// 333 6///7=
71685 45966 00404 11022 21030 39684 40229 52016 333 6///7=
71686 45966 80606 10001 21040 39208 40154 57006 333 6///7=
71687 26/// ///// 11012 21024 39396 40174 51015 333 60007=
71688 26/// /0803 10016 21004 39139 40156 51016 333 60007=
71689 45966 01804 11011 21064 39783 40238 52013 333 6///7=
71690 26/// /3002 11048 21069 333 60007=
71691 45666 82413 10009 21022 30145 40172 57007 333 6///7=
71693 26/// /1704 11019 21055 39516 40226 51013 333 60007=
71694 26/// /0801 10005 20000 39804 40167 58018 333 69987=
71695 26/// /3104 10021 21038 39849 40180 53029 333 60007=
71696 26/// /3331 11044 21067 30040 40076 53035 333 60007=
71697 47564 80905 10018 20003 39991 40163 57018 761// 333 6///7=
71698 26/// /1804 11069 21099 30178 40255 53002 333 60007=
71699 26/// /2004 10011 21005 30245 40253 56008 333 60007=
71704 47340 81606 10032 20028 39908 40129 57016 7104/ 333 6///7=
71729 26/// /0102 11032 21046 30115 40192 56010 333 60007=
71732 26/// /1603 10009 20008 333 60007=
71737 26/// /2102 11006 21051 39647 40170 57009 333 60007=
71741 26/// /1703 10032 20002 39773 40192 53017 333 60007=
71742 26/// /2414 11058 21102 30036 40226 53014 333 60007=
71743 26/// /2012 11148 21198 39809 40032 56057 333 60007=
71744 26/// /2005 11028 21071 30180 40222 56008 333 60007=
71746 26/// /1605 10033 20028 39902 40123 58016 333 60007=
71752 26/// /1104 10031 20011 39936 40153 58022 333 60007=
71753 26/// /0302 11098 21112 30244 40274 55002 333 60007=
71754 26/// /0103 11024 21044 39556 40226 52012 333 60007=
71758 26/// /2309 11055 21118 30187 40266 53002 333 60007=
71761 26/// ///// 10020 21052 333 60007=
71765 26/// /1602 10040 21003 39906 40178 51018 333 60007=
71766 26/// /1603 10052 20017 30067 40138 51022 333 60007=
71767 26/// /1504 10015 20012 39881 40143 58015 333 69947=
71771 26/// /3503 10062 20052 30098 40119 58003 333 60007=
71773 26/// /1702 10056 21006 39274 40118 58005 333 60007=
71779 26/// /0000 11030 21041 39515 40176 51006 333 60007=
71787 26/// /2007 11044 21049 39752 40250 56008 333 60007=
71788 26/// /1512 10016 21003 333 60007=
71789 26/// /0403 10001 21007 333 60007=
71791 26/// /1803 11032 21042 333 60007=
71792 27/// ///// 11019 21033 7//4/ 333 69947=
71793 26/// /3204 10010 20004 333 60007=
71794 26/// ///// 11013 21022 333 60007=
71795 26/// /1302 10011 21024 333 60007=
71797 26/// ///// 11015 21028 333 60007=
71812 45966 01702 10039 21007 39905 40177 52018 333 6///7=
71824 46/// /2302 11001 21003 333 6///7=
71833 46/// /1203 10015 20011 333 6///7=
71835 26/// /2513 11008 21044 39604 40081 58040 333 60007=
71837 46/// ///// 10026 333 6///7=
71839 46/// ///// 10002 333 6///7=
71849 26/// /2310 11001 21020 39856 40151 58025 333 60007=
71885 46/// ///// 10011 333 6///7=
71895 26/// ///// 11036 21053 333 69947=
71914 26/// /2001 10145 21022 39920 40137 51018 333 60007=
71916 26/// /2607 11229 21256 30150 40207 51012 333 60007=
71921 45966 01507 11225 21263 39493 40158 57017 333 6///7=
71927 26/// /1701 10047 30089 40143 51016 333 60007=
71941 47256 82107 10008 20008 39731 40147 57012 741// 333 6///7=
71942 26/// /0000 11048 21063 30103 40177 56005 333 60007=
71947 47220 82202 10001 20001 39778 40125 57014 7414/ 333 6///7=
71962 26/// /2306 11029 21044 39749 40174 58022 333 60007=
71970 26/// /0000 11035 21058 39639 40230 52021 333 60007=
71971 26/// /0002 11340 21377 30020 40068 51014 333 60007=
71973 26/// /2007 11038 21065 30034 40226 53010 333 60007=
71977 46/// ///// 11105 21128 39362 40074 58027 333 6///7=
71987 26/// /2313 11017 21057 30219 40229 56004 333 60007=
71989 26/// /2306 11200 21218 30149 40166 51012 333 60007=
71990 26/// /0105 11019 21064 38568 40163 58009 333 60007=
71999 46/// ///// 10023 21012 39884 40175 53016 333 6///7=
72222 35966 03008 10128 20094 30133 40180 56013 90853 555 92109=
72302 15266 81813 10128 20111 3//// 40103 56028 69957 90853 333 91024 555 92109=
72475 35766 80000 10061 20011 3//// 40123 56008 90852 555 92109=
73001 26/// /2505 11018 21019 39506 40203 56006 333 60007=
73002 26/// /2601 11044 21049 39691 40213 53021 333 60007=
73005 26/// /1904 11024 21070 30030 40184 56006 333 60007=
73011 27/// /2304 10003 20000 39651 40130 57013 7//44 333 69957=
73015 26/// /1801 11054 21063 30231 40289 56009 333 60007=
73016 26/// /1702 10006 20001 39711 40162 58014 333 60007=
73017 26/// /2209 11019 21047 39655 40071 58030 333 60007=
73018 26/// /2801 11001 21006 39783 40139 58017 333 60007=
73024 26/// /0706 11107 21139 30194 40226 51019 333 60007=
73025 26/// /2210 10000 21028 30292 40298 56003 333 60007=
73026 26/// /3007 11037 21083 30200 40251 53004 333 60007=
73027 26/// /0000 11128 21142 30210 40279 55000 333 60007=
73030 46/// /1808 11015 21079 30242 40258 56003 333 6///7=
73070 26/// /2902 10009 20006 39912 40143 58007 333 60007=
73071 26/// /2507 10001 21019 39705 40135 58023 333 60007=
73075 27/// /1510 11235 21276 39498 40158 58017 7//4/ 333 69927=
73080 26/// /2509 11039 21078 30197 40236 53008 333 60007=
76038 22/// ///// 1//// 2//// 3//// 4//// 5//// 7//// 8//// 9//// 333 0//// 30/// 4//// 54/// 56/// 57/// 5//// 6//// 8//// 8//// 8//// 9//// 9//// 9//// 444 ///// 555 3////=
76109 22/// ///// 1//// 2//// 3//// 4//// 5//// 7//// 8//// 9//// 333 0//// 30/// 4//// 54/// 56/// 57/// 5//// 6//// 8//// 8//// 8//// 9//// 9//// 9//// 444 ///// 555 3////=
76161 26/// /0000 10154 21011 39915 40165 52003 6 7 8 90850 333 0 1 2 30/// 4 58018 54 55 2 56 57 58 59 60007 7 8 8 8 9 9 9 444 555 1 30156=
76219 26/// /1001 10032 20013 38166 40234 52002 6 7 8 90850 333 0 1 2 30/// 4 58009 54 55 2 56 57 58 59 60007 7 8 8 8 9 9 9 444 555 1 30029=
76226 26/// /2802 10143 20041 38631 40159 58002 7//// 8//// 90850 4//// 333 0//// 30/// 56/// 57/// 60007 8//// 8//// 8//// 8//// 9//// 9//// 555 30213=
76242 26/// /1401 10140 20140 39934 40178 57006 6 7 8 90850 333 0 1 2 30/// 4 58018 54 55 2 56 57 58 59 60007 7 8 8 8 9 9 9 444 555 1 30165=
76254 26/// /2102 10190 20068 30071 40168 55001 6 7 8 90850 333 0 1 2 30/// 4 58025 54 55 2 56 57 58 59 60007 7 8 8 8 9 9 9 444 555 1 30179=
76304 26/// /0302 10175 20142 30144 40154 55000 7//// 8//// 90850 333 0//// 30/// 4//// 54/// 56/// 57/// 58016 60007 8//// 8//// 8//// 9//// 9//// 9//// 444 ///// 555 30256=
76308 26/// /1402 10127 20004 38434 40889 58003 6 7 8 90850 333 0 1 2 30/// 4 58008 54 55 2 56 57 58 59 60007 7 8 8 8 9 9 9 444 555 1 30127=
76324 26/// /1402 10139 20041 38283 40195 58003 6 7 8 90850 333 0 1 2 30/// 4 58011 54 55 2 56 57 58 59 60007 7 8 8 8 9 9 9 444 555 1 30139=
76348 26/// ///// 10148 20142 39729 40222 57012 6 7 8 90850 333 0 1 2 30/// 4 58017 54 55 2 56 57 58 59 60007 7 8 8 8 9 9 9 444 555 1 30156=
76383 26/// /0301 10155 20073 38927 40175 50001 6 7 8 90850 333 0 1 2 30/// 4 58015 54 55 2 56 57 58 59 60007 7 8 8 8 9 9 9 444 555 1 30146=
76392 26/// /1102 10151 20145 39636 40224 58006 7//// 8//// 90850 333 0//// 30/// 56/// 57/// 58019 60027 8//// 8//// 8//// 8//// 9//// 9//// 9//// 555 30154=
76393 21310 81202 10152 20132 39630 40207 5//// 75055 88600 90850 333 32/// 56300 58012 60027 88708=
76402 32950 03101 10112 20112 30107 40164 57014 90850 333 30/// 58008=
76403 26/// /3002 10111 20111 30111 40170 57010 6 7 8 90850 333 0 1 2 30/// 4 58009 54 55 2 56 57 58 59 60007 7 8 8 8 9 9 9 444 555 1 30106=
76413 26/// /0202 10118 20096 30127 40139 57007 6 7 8 90850 333 0 1 2 30/// 4 58004 54 55 2 56 57 58 59 60007 7 8 8 8 9 9 9 444 555 1 30118=
76424 26/// /2501 10109 20015 38163 40221 58004 7//// 8//// 90850 333 0//// 30/// 4//// 54/// 56/// 57/// 58011 60007 8//// 8//// 8//// 9//// 9//// 9//// 444 ///// 555 30182=
76459 22/// ///// 1//// 2//// 3//// 4//// 5//// 7//// 8//// 9//// 333 0//// 30/// 4//// 54/// 56/// 57/// 5//// 6//// 8//// 8//// 8//// 9//// 9//// 9//// 444 ///// 555 3////=
76490 26/// /3502 10168 20155 39825 40219 57010 6 7 8 90850 333 0 1 2 30/// 4 58018 54 55 2 56 57 58 59 60007 7 8 8 8 9 9 9 444 555 1 30208=
76527 26/// /1104 10108 20027 37476 40228 58006 7//// 8//// 90850 333 0//// 30/// 4//// 54/// 56/// 57/// 58012 60007 8//// 8//// 8//// 9//// 9//// 9//// 444 ///// 555 30134=
76538 26/// /1202 10128 20071 38186 40182 57005 6 7 8 90850 333 0 1 2 30/// 4 58016 54 55 2 56 57 58 59 60007 7 8 8 8 9 9 9 444 555 1 30132=
76539 31556 81103 10128 20071 38176 40163 52011 70544 88600 90850 333 30/// 56300 58023 88723 91103 91511=
76556 32960 02002 10162 20143 39122 40130 57008 90847 333 30/// 58005=
76557 22/// ///// 1//// 2//// 3//// 4//// 5//// 7//// 8//// 9//// 333 0//// 30/// 4//// 54/// 56/// 57/// 5//// 6//// 8//// 8//// 8//// 9//// 9//// 9//// 444 ///// 555 3////=
76574 26/// /3503 10124 20076 38133 40229 50000 7//// 8//// 90850 333 0//// 30/// 4//// 54/// 56/// 57/// 58015 60007 8//// 8//// 8//// 9//// 9//// 9//// 444 ///// 555 30225=
76580 26/// ///// 10171 20133 39088 40204 57008 7//// 8//// 90850 333 0//// 30/// 4//// 54/// 56/// 57/// 58008 60007 8//// 8//// 8//// 9//// 9//// 9//// 444 ///// 555 30223=
76586 26/// /0000 10184 20182 30049 40209 57010 90850 333 0//// 30/// 4//// 54/// 56/// 57/// 60007 8//// 8//// 8//// 9//// 9//// 9//// 444 ///// 555 30226=
76611 26/// ///// 10126 20090 38472 40161 58006 6 7 8 90850 333 0 1 2 30/// 4 58003 54 55 2 56 57 58 59 60007 7 8 8 8 9 9 9 444 555 1 30156=
76632 31440 62301 10096 20069 37710 40142 57008 70511 86500 90845 333 30/// 56500 58017 86611=
76634 31560 83602 10110 20080 37874 40181 57006 70222 88700 90850 333 30/// 56500 58018 88720=
76640 31110 80000 10190 20187 30203 40214 57012 70222 84520 90850 333 31/// 56110 59001 84602 84457=
76641 26/// /3301 10190 20184 30191 40203 57010 6 7 8 90850 333 0 1 2 30/// 4 58000 54 55 2 56 57 58 59 60007 7 8 8 8 9 9 9 444 555 1 30193=
76645 26/// /0701 10201 20182 30165 40180 58012 7//// 8//// 90850 333 0//// 30/// 56/// 57/// 58016 60007 8//// 8//// 8//// 8//// 9//// 9//// 9//// 555 30299=
76648 26/// /3601 10188 20176 3//// 4//// 5//// 90850 333 0//// 30/// 4//// 54/// 56/// 57/// 5//// 60007 8//// 8//// 8//// 9//// 9//// 9//// 444 ///// 555 30258=
76654 31956 00000 10220 20191 30143 40147 57009 70544 90900 333 30/// 59002=
76659 26/// /0801 10168 20168 39633 40146 57014 6 7 8 90850 333 0 1 2 30/// 4 59001 54 55 2 56 57 58 59 60007 7 8 8 8 9 9 9 444 555 1 30186=
76662 32960 00701 10124 20067 38463 40116 57005 90845 333 30/// 59001=
76663 26/// /0502 10127 20049 38460 48471 57006 7//// 8//// 90850 333 0//// 30/// 4//// 54/// 56/// 57/// 58005 60007 8//// 8//// 8//// 9//// 9//// 9//// 444 ///// 555 30232=
76674 26/// /1901 10061 20024 37384 40298 58009 7//// 8//// 90850 333 0//// 30/// 54/// 56/// 57/// 58007 60007 8//// 8//// 8//// 9//// 9//// 9//// 444 ///// 555 30157=
76675 32960 21801 10069 20016 37384 40118 57008 82400 90850 333 30/// 56500 58006 82626 98460=
76684 26/// /3001 10109 20038 37837 40265 58003 7//// 8//// 90850 333 0//// 30/// 4//// 54/// 56/// 57/// 58009 60007 8//// 8//// 8//// 9//// 9//// 9//// 444 ///// 555 30186=
76686 26/// /1004 10110 20083 37877 40166 58006 6 7 8 90850 333 0 1 2 30/// 4 58009 54 55 2 56 57 58 59 60007 7 8 8 8 9 9 9 444 555 1 30114=
76695 31956 00402 10218 20203 30163 40169 57014 70200 90855 333 30/// 58010=
76729 26/// /3001 10199 20097 39112 40134 51003 90850 333 0//// 30/// 4//// 50489 54/// 56/// 57/// 58006 60007 8//// 8//// 8//// 9//// 9//// 9//// 444 ///// 555 30253=
76737 21365 70701 10148 20148 38799 40190 58012 72055 876// 90850 333 31/// 56999 58009 69917 87707 91104 91510=
76742 26/// /3306 10222 2//// 30146 40167 56014 7//// 8//// 90850 333 0//// 30/// 4//// 54/// 56/// 57/// 58008 60007 8//// 8//// 8//// 9//// 9//// 9//// 444 ///// 555 30259=
76744 26/// /0000 10219 2//// 30165 40174 57011 7//// 8//// 90850 333 0//// 30/// 4//// 54/// 56/// 57/// 58011 60007 8//// 8//// 8//// 9//// 9//// 9//// 444 ///// 555 30237=
76751 26/// /3602 10220 20210 30152 40164 56011 7//// 8//// 90850 333 0//// 30/// 4//// 54/// 56/// 57/// 58016 60017 8//// 8//// 8//// 9//// 9//// 9//// 444 ///// 555 30294=
76763 26/// /1202 10176 20138 38760 40163 57009 7//// 8//// 90850 333 0//// 30/// 4//// 54/// 56/// 57/// 58004 60007 8//// 8//// 8//// 8//// 9//// 9//// 9//// 444 ///// 555=
76773 31530 40000 10176 20140 38420 40097 57004 70210 84400 90850 333 30/// 56200 58008 84620=
76775 31560 80401 10178 20145 38534 40144 57009 70322 85520 90849 333 31/// 56860 58007 85624 83458=
76833 31858 83609 10265 2//// 3//// 4//// 5//// 70222 88050 90850 333 30/// 56080 58/// 88358 92025=
76834 22/// ///// 1//// 2//// 3//// 4//// 5//// 7//// 8//// 9//// 333 0//// 30/// 4//// 54/// 56/// 57/// 5//// 6//// 8//// 8//// 8//// 444 ///// 555 3////=
76840 32901 33604 10262 20220 30072 40127 57009 90850 333 30/// 58001=
76842 26/// /2603 10208 20179 39510 40162 57008 7//// 8//// 90850 333 0//// 30/// 4//// 54/// 56/// 57/// 58004 60007 8//// 8//// 8//// 9//// 9//// 9//// 444 ///// 555 30289=
76843 32465 33202 10208 20181 39508 40149 57008 83600 90845 333 30/// 56700 58003 83711=
76846 26/// /0301 10111 20088 37942 40174 57015 6 7 8 90850 333 0 1 2 30/// 4 58009 54 55 2 56 57 58 59 60007 7 8 8 8 9 9 9 444 555 1 30113=
76849 22/// ///// 1//// 2//// 3//// 4//// 5//// 7//// 8//// 9//// 333 0//// 30/// 4//// 56/// 57/// 5//// 6//// 8//// 8//// 8//// 9//// 9//// 9//// 444 ///// 555 3////=
78224 41559 39900 10161 20153 30078 40154 56013 70544 83200 333 83825=
78243 41458 61801 10186 20170 30053 40177 57013 76000 86720 333 86718=
78255 42558 31701 10211 20203 39986 40133 57020 83230 333 83820=
78264 31459 50102 10231 20188 30065 40140 57010 70500 84210 333 84818 84456=
78458 32466 40000 10235 20214 40129 57011 81230 333 30/// 56000 59009 81818 84357=
78460 31459 51503 10220 20189 40136 55006 70544 81231 333 30/// 56200 59006 81818=
78479 32466 21601 10240 20217 40136 57012 82200 333 30/// 56000 30/// 56000 59009 82818=
78485 32466 30602 10208 20198 40133 57012 83200 333 30/// 56000 59007 83816=
78486 32466 33302 20190 20236 40136 57010 83200 333 30/// 56400 59010 83818=
78762 32570 11112 10207 20141 39124 40105 55009 333 30/// 59001=
78862 42480 71107 10243 20206 30122 40145 87800 333 59003 82818 87636=
78925 44883 /0403 10225 20210 40139 55001 700// 333 59001=
78948 41579 60915 10255 20202 30132 40140 70611 86200 333 02200 58001 86824=
78958 41465 10815 10252 20207 30114 40124 70600 81200 333 59006 81819=
78982 21470 21112 10254 20218 30112 40116 55007 70500 81201 333 59002 60007 81818=



SMUS70 KWBC 210900
AAXX 21094
71032 26/// /3303 11007 21029 39372 40198 52014 333 60007=
71039 26/// /1105 10055 21033 39442 40092 52005 333 60007=
71043 42983 51110 10016 21040 30002 40094 58036 333 6///7=
71044 26/// /0405 11051 21100 39738 40055 56022 333 60007=
71045 26/// /3602 10049 21035 39291 40143 58005 333 60007=
71048 26/// /2804 10025 21003 333 60007=
71050 26/// /1602 11046 21056 39106 40179 52005 333 60007=
71051 26/// ///// 10019 21007 333 60007=
71055 46/// /1307 11070 21126 39779 40124 56048 333 6///7=
71056 26/// /0706 10036 21021 39962 40259 53013 333 69937=
71060 26/// /2903 11013 21079 38693 40213 52004 333 60007=
71062 26/// /2201 11010 21070 39132 40197 51004 333 60007=
71066 45966 02201 11022 21047 39809 40228 52005 333 6///7=
71068 42974 00305 10027 21062 39520 40213 53001 333 6///7=
71072 45666 82804 10003 21003 39916 40163 57015 333 6///7=
71073 26/// /1801 10000 21016 333 60007=
71074 26/// /0113 11351 21386 30028 40110 51005 333 60007=
71075 26/// /3409 11009 21045 39711 40221 53028 333 60007=
71077 46/// /0404 10000 21050 39707 40247 51015 333 6///7=
71078 45966 03412 10022 21025 39741 40180 52020 333 6///7=
71079 42974 03207 10029 21019 39858 40136 51023 333 6///7=
71083 42532 53525 11157 21185 30012 40055 52048 333 6///7=
71084 457// 83321 11180 21198 30102 40151 52032 333 6///7=
71085 45966 03008 10012 21049 38833 40205 52006 333 6///7=
71087 46/// /1105 11011 21055 30031 40234 58012 333 6///7=
71090 45966 02703 11334 21367 39975 40012 52003 333 6///7=
71092 459// 81308 11323 21368 39311 40004 57001 333 6///7=
71094 463// 23219 11326 21360 39007 49939 52002 333 6///7=
71095 47766 41705 11341 21374 39935 40020 52011 771// 333 6///7=
71097 469// 02703 11272 21339 39521 40014 52001 333 6///7=
71098 27/// /1906 10005 20000 39618 40142 56019 7//44 333 69977=
71101 26/// /0000 10052 20045 30104 40112 58005 333 60007=
71102 26/// ///// 11026 21049 333 60007=
71104 42974 30905 10070 21089 39074 40168 52004 333 6///7=
71105 26/// ///// 11017 21027 333 60007=
71106 46/// /3004 10062 20006 333 6///7=
71108 42974 10204 10103 20032 30080 40152 52019 333 6///7=
71109 42974 02203 10019 20004 30102 40128 52011 333 6///7=
71111 45966 82403 10053 20042 30106 40114 57005 333 6///7=
71113 26/// /0411 10135 21003 30129 40153 51023 333 60007=
71114 26/// /0708 10087 20018 30123 40170 53025 333 60007=
71115 26/// /1005 10026 21011 39612 40191 51014 333 60007=
71116 26/// /0808 10003 21020 39120 40216 52002 333 60007=
71121 45964 02603 11024 21059 39387 40212 53005 333 6///7=
71122 26/// /2501 11032 21067 38637 40234 53005 333 60007=
71123 42980 01904 11051 21064 39347 40221 50005 333 6///7=
71127 26/// /2903 10079 21065 39300 40182 51004 333 60007=
71129 42974 00204 11009 21019 39386 40215 50009 333 6///7=
71130 45966 03306 10024 21033 39752 40211 52024 333 6///7=
71131 26/// /3101 10028 21045 38961 40218 58003 333 60007=
71132 45966 02503 11032 21054 39927 40241 52021 333 6///7=
71133 26/// /2801 11043 21064 39507 40218 53020 333 60007=
71134 26/// /3311 11213 21237 39910 49986 53016 333 60007=
71135 26/// /2708 10027 21015 39135 40225 55000 333 60007=
71136 26/// /2508 11018 21029 39685 40190 58006 333 60007=
71137 26/// /0404 11043 21052 39279 40234 50001 333 60007=
71139 26/// /2202 10046 21068 38754 40205 58002 333 60007=
71140 42974 02510 11020 21032 39683 40189 58007 333 6///7=
71141 26/// ///// 11234 21257 30108 40135 52023 333 60007=
71142 45966 02211 10027 20003 39245 40211 54000 333 6///7=
71147 26/// /2613 10030 21001 333 60007=
71148 46/// /2705 11012 21022 39617 40201 56008 333 6///7=
71150 26/// /2706 10003 20003 39505 40187 58003 333 60007=
71151 26/// /2108 11029 21039 39643 40148 58031 333 60007=
71153 26/// /2205 10010 21047 333 60007=
71154 26/// /2109 10036 21067 333 60007=
71155 46/// ///// 11054 21065 333 6///7=
71157 26/// /2402 11011 21037 39406 40210 53006 333 60007=
71158 26/// /3208 11016 21040 39852 40128 53005 333 60007=
71160 26/// /3302 11128 21156 30061 40278 52018 333 60007=
71161 26/// /1804 10034 21043 30028 40176 56007 333 60007=
71162 26/// /1013 30039 50001 333 60007=
71163 26/// /1105 11053 21084 39893 40234 58018 333 60007=
71164 46/// /0803 11043 21113 30031 40112 57037 333 6///7=
71165 26/// /2301 11130 21147 39956 40240 58018 333 60007=
71167 45966 02805 11028 21076 39121 40213 52004 333 6///7=
71168 26/// /3005 11030 21036 39649 40234 58002 333 60007=
71170 26/// /2510 10006 21014 39704 40175 58008 333 60007=
71180 26/// /1003 11022 21068 30205 40245 53006 333 60007=
71183 26/// /1406 10011 21034 30146 40186 56011 333 60007=
71187 45966 00809 10086 20014 30123 40170 52025 333 6///7=
71188 42974 83601 11046 21090 30157 40200 56005 333 6///7=
71189 46/// ///// 11014 21034 333 6///7=
71193 26/// /1905 10004 21002 39767 40129 58013 333 60007=
71196 26/// /0701 10009 21032 39970 40168 58013 333 60007=
71200 26/// /2409 10106 20045 30064 40147 52018 333 60007=
71201 26/// ///// 10096 20060 333 60007=
71203 45966 03506 10000 21015 39675 40194 52013 333 6///7=
71207 26/// /0102 10067 20005 30098 40161 51024 333 60007=
71208 26/// /2811 10017 21020 39753 40028 56021 333 60007=
71211 26/// /3421 10118 20027 30067 40076 53022 333 60007=
71215 26/// /3502 10004 21015 39851 40194 51013 333 60007=
71216 26/// /3101 11001 21023 39598 40215 53013 333 60007=
71218 26/// /0000 11024 21034 39770 40202 53017 333 60007=
71222 26/// /0605 10002 21043 39210 40168 58005 333 60007=
71230 26/// /2701 10067 21081 39302 40188 58004 333 60007=
71231 26/// /1510 10016 21010 333 60007=
71232 26/// /2612 10044 21083 38719 40196 52006 333 60007=
71234 26/// /3402 11003 21028 39025 40205 53010 333 60007=
71235 26/// /3107 10051 21069 333 69927=
71236 46/// /2501 11051 21057 333 6///7=
71238 26/// /0000 11042 21056 39353 40205 53006 333 60007=
71239 26/// /2608 10013 21004 39722 40182 56006 333 60007=
71240 26/// ///// 10001 21008 39371 40214 52005 333 60007=
71242 26/// /2302 11047 21064 39194 40224 51004 333 60007=
71243 26/// /2803 10010 21008 39133 40197 51007 333 60007=
71244 26/// /2206 10001 21030 38979 40203 52003 333 60007=
71246 26/// /3202 11023 21051 39564 40225 51005 333 60007=
71247 45966 02102 11015 21020 39357 40209 52001 333 6///7=
71248 26/// /0000 11052 21075 38916 40219 53005 333 60007=
71249 26/// /2505 11040 21051 333 60007=
71250 26/// /2509 11046 21100 30107 40247 52008 333 60007=
71251 26/// /1904 11010 21020 39285 40208 53004 333 60007=
71252 26/// /0001 11067 21091 38648 40218 53001 333 69927=
71254 26/// /0000 11038 21049 39322 40205 51004 333 60007=
71255 26/// /2601 11003 21035 333 60007=
71260 42332 83003 10007 20005 39909 40146 58006 333 6///7=
71261 46/// /1406 10022 20015 39872 40132 57015 333 6///7=
71263 42562 80705 10016 20016 39862 40152 57019 333 6///7=
71265 47556 80709 10026 20016 30066 40160 57017 761// 333 6///7=
71270 26/// /1303 10022 20005 39928 40146 58019 333 60007=
71271 26/// /0601 11013 21057 333 60007=
71272 45466 83317 11044 21074 39810 40162 52046 333 6///7=
71273 26/// /0502 11027 21044 39562 40220 51018 333 60007=
71282 46/// /1306 10021 21012 39881 40151 58018 333 6///7=
71283 26/// /0406 10030 21067 333 60007=
71284 26/// ///// 11012 21059 333 60007=
71290 45966 02501 11039 21052 39363 40198 57002 333 6///7=
71319 26/// /2404 11025 21061 39309 40177 56008 333 60007=
71368 47120 81105 10013 20010 39757 40146 57020 7614/ 333 6///7=
71370 46/// /0301 11040 21056 30049 40187 56010 333 6///7=
71371 45966 71808 10022 21037 30156 40190 57011 333 6///7=
71372 26/// /1911 10022 21032 333 60007=
71373 26/// /0805 10030 21058 39917 40191 56008 333 60007=
71374 46/// /0516 11070 21153 333 6///7=
71375 46/// /0918 11046 21116 333 6///7=
71376 26/// /0000 11023 21037 39893 40187 58010 333 60007=
71377 26/// /1503 10017 21044 30138 40187 56012 333 60007=
71378 26/// /1603 10004 21044 39972 40181 56010 333 60007=
71379 26/// /1804 10009 21029 39967 40138 56010 333 60007=
71381 26/// /2106 10028 21031 30018 40158 56010 333 60007=
71382 26/// /2002 11077 21085 39234 40180 56013 333 60007=
71383 26/// /0202 11053 21058 39521 40131 56016 333 69957=
71384 26/// /3002 11031 21057 30184 40192 56007 333 60007=
71386 26/// /1404 11004 21058 39977 40184 56007 333 60007=
71387 27/// /1804 11006 21006 39777 40152 57012 7//44 333 69947=
71388 26/// /0502 10011 21033 39978 40166 58011 333 60007=
71389 26/// /0000 11054 21075 333 60007=
71390 46/// /0705 11019 333 6///7=
71391 26/// ///// 11016 21028 333 60007=
71392 26/// /3201 11044 333 60007=
71395 42974 12106 11046 21092 30092 40275 56005 333 6///7=
71398 45966 02104 11098 21109 30100 40111 57028 333 6///7=
71400 26/// /1703 11118 21144 30090 40224 53010 333 60007=
71402 26/// /3110 11045 21065 30096 40213 53020 333 60007=
71403 46/// /2607 11016 21053 30253 40273 58001 333 6///7=
71410 45966 03306 10025 21022 39863 40141 52024 333 6///7=
71411 26/// /2304 11042 21048 30262 40275 56007 333 60007=
71412 26/// /2110 11020 21054 30243 40253 55002 333 60007=
71414 26/// ///// 11020 21062 333 60007=
71415 26/// /2103 11040 21091 30257 40260 55002 333 69927=
71418 46/// ///// 11019 21067 30205 40238 53006 333 6///7=
71419 46/// /2208 11034 21084 30260 40270 55000 333 6///7=
71421 26/// /1802 11275 21312 39484 40230 55000 333 60007=
71423 26/// /1905 11022 21032 30201 40211 56001 333 60007=
71424 46/// /2303 333 6///7=
71425 26/// /0902 10007 21041 30149 40185 56008 333 60007=
71426 26/// /2014 10024 21013 333 60007=
71427 26/// /2507 11001 21013 30166 40173 58009 333 60007=
71428 26/// /1907 10022 21030 30170 40176 56010 333 60007=
71429 46/// /2506 30183 57005 333 6///7=
71430 26/// /1608 10015 21002 30081 40178 58004 333 60007=
71431 26/// /2903 10033 21019 30068 40164 55012 333 60007=
71432 26/// /1007 10031 20017 30057 40154 58023 333 60007=
71433 46/// ///// 10000 20000 39911 40143 58008 333 6///7=
71434 26/// /2510 10007 21002 39896 49961 56037 333 69907=
71435 26/// /2505 11016 21030 39559 40155 58019 333 60007=
71436 47658 81502 10003 21008 39933 40168 57015 741// 333 6///7=
71437 46/// /0206 10025 20019 30056 40151 57020 333 6///7=
71438 46/// /1209 10013 21001 39908 40143 58020 333 6///7=
71439 46/// /1902 10014 20010 39916 40138 58014 333 6///7=
71440 26/// /0000 10018 20010 333 60007=
71441 26/// /2509 11011 21040 39858 40171 58019 333 60007=
71442 26/// /2807 10017 21017 39831 40144 55006 333 60007=
71443 26/// /2006 10010 21011 39771 40184 53015 333 60007=
71444 26/// /0000 11036 21044 39425 40185 50000 333 60007=
71445 26/// /3314 11014 21035 39857 40135 53020 333 60007=
71446 26/// /2211 10029 21007 39239 40215 55000 333 60007=
71447 26/// /2605 11008 21021 39654 40202 56008 333 60007=
71448 26/// /2406 10007 21028 39812 40141 56028 333 60007=
71450 26/// /2806 10002 21009 39492 40210 53003 333 60007=
71451 26/// /3003 10022 21030 39787 40210 53023 333 60007=
71452 26/// /2804 10002 21013 39491 40204 58005 333 60007=
71453 26/// /1001 11026 21039 39305 40216 55001 333 60007=
71454 26/// /0403 10037 21055 39530 40215 52022 333 60007=
71455 26/// /2608 10014 21012 39417 40211 52006 333 60007=
71456 26/// /3203 10002 21036 39615 40217 53020 333 60007=
71457 26/// /2201 11030 21046 39317 40206 53004 333 60007=
71458 26/// /1901 11053 21061 39441 40219 52007 333 60007=
71459 26/// /3203 10010 21025 39400 40205 55000 333 60007=
71460 46/// /1005 10003 21005 39918 40161 58015 333 6///7=
71461 26/// /2702 11021 21043 333 60007=
71462 46/// /1302 10010 20003 39919 40144 57008 333 6///7=
71463 46/// /1011 10035 20002 39930 40154 58024 333 6///7=
71464 46/// /0515 10026 20000 39926 40140 56022 333 6///7=
71465 46/// ///// 39913 58021 333 6///7=
71468 46/// /2105 11007 21016 39807 40130 58026 333 6///7=
71472 26/// /1203 10068 20064 30094 40111 56005 333 60007=
71473 26/// /1604 10097 20046 30114 40144 51019 333 60007=
71474 26/// /2105 10005 21043 38954 40169 51003 333 60007=
71475 26/// /3102 10026 20019 30061 40153 51021 333 60007=
71476 26/// ///// 10081 20039 30096 40108 58007 333 60007=
71478 26/// /0905 10131 21012 39984 40108 55002 333 60007=
71479 26/// /1111 10100 20049 30002 40116 53002 333 60007=
71481 26/// /2801 11054 21068 333 60007=
71482 26/// /0715 10092 20027 333 60007=
71483 26/// /0201 11017 21065 333 60007=
71484 26/// /2001 10086 20040 30089 40107 56006 333 60007=
71485 26/// /1408 10083 20064 30103 40120 51009 333 60007=
71486 26/// /1702 11060 21074 39028 40230 51007 333 60007=
71487 26/// /2706 11000 21017 39352 40222 55000 333 60007=
71488 26/// /2208 10016 21063 38647 40192 51004 333 69927=
71490 46/// /3331 11137 21148 39890 40206 51022 333 6///7=
71492 46/// /1525 11147 21174 39478 40188 58034 333 6///7=
71496 26/// /2604 11024 21035 39596 40211 53011 333 60007=
71498 26/// /2903 11012 21012 333 60007=
71499 45966 02902 11010 21041 39606 40234 52021 333 6///7=
71501 26/// /3217 11108 21124 30078 40080 56015 333 60007=
71502 46/// /1019 11104 21127 30033 40049 56035 333 6///7=
71503 26/// /0914 11050 21102 39872 40141 58047 333 60007=
71505 26/// /3303 10036 20004 39396 40112 58001 333 60007=
71510 26/// /2506 11011 21021 39502 40213 51010 333 60007=
71511 26/// /2903 11024 21037 39569 40209 53007 333 60007=
71512 26/// /0705 11063 21144 30192 40206 51002 333 60007=
71513 45766 70709 11086 21155 30200 40216 52001 333 6///7=
71514 26/// /3503 11022 21037 39510 40212 53003 333 60007=
71516 26/// /2402 11041 21046 39310 40219 55003 333 60007=
71520 26/// /1603 11053 21056 39453 40126 56015 333 69927=
71521 26/// /1002 11035 21036 333 69987=
71522 27/// /1301 11012 21013 39661 40149 56010 7//44 333 60027=
71523 26/// ///// 11007 21011 39756 40130 56012 333 69927=
71524 26/// /1002 11008 21029 30168 40194 56011 333 60007=
71527 45966 02209 11024 21044 39638 40146 57028 333 6///7=
71538 47216 81905 10041 20038 39898 40128 57013 761// 333 6///7=
71550 26/// /2711 10031 20007 39797 40171 55001 333 60007=
71551 26/// /2905 10020 20004 39554 40200 53008 333 60007=
71552 46/// /2215 10001 21021 39856 40130 56018 333 6///7=
71564 26/// /2712 10034 21005 39803 40169 56017 333 60007=
71569 26/// /2710 10004 21007 39491 40192 55003 333 60007=
71573 26/// /1103 10023 20019 39853 40134 58021 333 69937=
71577 46/// /2608 10019 21015 39859 40127 56019 333 6///7=
71578 26/// /2703 333 60007=
71579 26/// /2306 10002 21029 39866 40150 58026 333 60007=
71585 26/// /1804 11033 21057 39776 40230 51013 333 60007=
71586 26/// /0102 10024 21043 39755 40217 53021 333 60007=
71587 45966 02809 10013 21023 39721 40077 57014 333 6///7=
71588 26/// /3001 11062 21090 333 60007=
71589 26/// /2410 11062 21107 30088 40224 53013 333 60007=
71597 47662 83315 11202 21220 30045 40109 52021 771// 333 6///7=
71599 26/// /1604 11058 21069 30112 40271 55008 333 60007=
71603 42974 02005 11019 21023 30217 40271 56009 333 6///7=
71604 46/// /2509 11055 21101 333 6///7=
71607 26/// /1201 11071 21080 30211 40244 56013 333 60007=
71608 26/// /1406 10091 20040 30139 40142 51017 333 60007=
71609 42966 32003 11044 21045 30118 40256 56010 333 6///7=
71610 45966 00703 11016 21066 39906 40205 57011 333 6///7=
71611 26/// /0505 11032 21060 333 60007=
71612 26/// /2105 10027 21050 30098 40188 56011 333 60007=
71614 26/// /1301 10002 21037 30118 40184 56010 333 60007=
71616 26/// /1605 11001 21062 30075 40195 57011 333 60017=
71617 26/// /0402 10019 21026 30008 40177 55009 333 60007=
71618 45466 83431 11044 21067 30043 40080 52037 333 6///7=
71619 26/// /2604 11016 21067 30147 40206 56007 333 60007=
71623 42432 81205 10016 20014 39802 40140 58018 333 6///7=
71624 42558 81104 10030 20010 39944 40156 58018 333 6///7=
71625 27564 80000 10015 21035 30010 40171 58009 771// 333 60007=
71627 42874 81507 10020 21045 30144 40189 56011 333 6///7=
71628 42974 80605 10001 21033 30037 40179 57012 333 6///7=
71629 26/// /3311 11233 21275 30071 40085 53018 333 60007=
71631 26/// /1506 10008 20004 39642 40142 57017 333 69927=
71632 26/// /3412 10020 21036 39741 40177 53019 333 60007=
71633 42448 81303 10017 20011 39873 40145 57015 333 6///7=
71634 26/// /1802 11015 21077 30065 40220 56007 333 60007=
71638 26/// /3303 10078 20021 30040 40144 51020 333 60007=
71675 45966 72912 10017 21019 39754 40030 57020 333 6///7=
71683 26/// /1308 11086 21141 39967 40078 56045 333 60007=
71700 45966 01001 11056 21056 30215 40241 57013 333 6///7=
71701 25964 02005 11021 21043 30177 40240 56012 333 60007=
71702 26/// /2011 11024 21043 30224 40239 56006 333 60007=
71705 42974 21908 11024 21053 30155 40244 56008 333 6///7=
71706 42974 42308 11015 21037 30192 40253 57004 333 6///7=
71707 42974 22309 11055 21118 30188 40266 53003 333 6///7=
71709 42774 72314 11019 21064 30220 40234 55003 333 6///7=
71710 26/// /2113 11016 21056 30221 40231 55003 333 60007=
71712 26/// /0000 11004 21032 30122 40182 56010 333 60007=
71713 26/// /1610 10015 21049 30146 40185 56010 333 60007=
71714 26/// /2902 11082 21092 30122 40197 56010 333 60007=
71715 26/// /1905 10011 21063 30005 40188 56008 333 60007=
71716 25959 00000 11101 21107 39988 40199 56009 333 60007=
71717 45966 01803 11010 21058 38874 40174 52001 333 6///7=
71718 42883 32010 10019 21064 30113 40179 57007 333 6///7=
71719 26/// /2105 11037 21072 30204 40210 56005 333 60007=
71720 26/// ///// 10082 20021 39995 40146 53020 333 60007=
71721 26/// /0000 11011 21038 39926 40173 58013 333 60007=
71723 26/// /0902 11014 21049 30176 40186 57011 333 60007=
71724 26/// /3401 11027 21038 30181 40189 56011 333 60007=
71725 26/// /2006 10007 20002 39734 40151 57012 333 60007=
71726 26/// /2105 11000 21027 39618 40159 57009 333 60007=
71728 42980 72210 10017 21040 39937 40159 56007 333 6///7=
71730 42124 82204 10006 20002 39724 40151 57013 333 6///7=
71731 47458 81807 10007 20004 39705 40157 57014 710// 333 6///7=
71733 26/// /2205 10006 20003 39723 40148 57013 333 60007=
71734 26/// /2106 10006 20004 39748 40139 58012 333 60007=
71736 27/// /2908 10012 21046 38837 40208 53006 7//4/ 333 69927=
71739 42766 81904 10004 20004 39766 40129 58013 333 6///7=
71747 26/// /2402 11028 21048 39688 40166 58018 333 60007=
71748 26/// /2712 10016 21016 39853 40137 56018 333 60007=
71750 26/// /1702 11003 21004 39904 40139 58015 333 60007=
71751 26/// /2709 10012 21003 39891 40150 58015 333 60007=
71768 26/// /2602 10035 21019 39646 40192 51012 333 60007=
71769 26/// /1308 10103 20053 30121 40139 52019 333 60007=
71770 26/// /0902 10053 21020 39441 40209 53009 333 60007=
71772 26/// /1505 10088 20051 30130 40142 51018 333 60007=
71775 26/// /1701 10057 20036 30146 40152 51019 333 60007=
71776 26/// /2102 11000 21014 39569 40210 51009 333 60007=
71777 26/// ///// 11004 21007 39926 40175 52021 333 60007=
71778 46/// /1606 10118 20038 30109 40147 51018 333 6///7=
71780 26/// /3004 10142 21005 30116 40146 52014 333 60007=
71781 46/// /1209 10124 20031 30114 40138 52020 333 6///7=
71782 26/// /0204 11023 21038 38912 40236 51008 333 60007=
71783 26/// /2601 10091 20035 30075 40148 53018 333 60007=
71784 26/// /0302 10130 20008 39943 40146 51017 333 60007=
71785 26/// /0102 10080 20040 30137 40153 51020 333 60007=
71786 26/// /0802 11040 21067 38413 40227 50000 333 60007=
71799 42980 02802 10063 20022 30124 40147 50017 333 6///7=
71800 26/// /2612 30236 53013 333 60007=
71801 42774 02412 11056 21098 30072 40250 53008 333 6///7=
71803 42680 22414 11059 21112 30033 40225 53014 333 6///7=
71805 22975 02414 11017 21039 30261 40270 53010 333 41998 60007 90710 91123 93100 555 60005=
71808 42974 02002 11169 21218 30175 40223 53020 333 6///7=
71809 42574 72207 11026 21059 30195 40223 53011 333 6///7=
71810 26/// /0708 11043 21075 30123 40190 58002 333 60007=
71813 26/// /0608 11084 21151 30200 40214 50002 333 60007=
71814 26/// /3403 11168 21197 30219 40229 51011 333 60007=
71815 42574 62206 11036 21064 30204 40236 51008 333 6///7=
71818 45966 02009 11156 21228 30160 40182 52009 333 6///7=
71819 45966 22007 11153 21204 30176 40219 52025 333 6///7=
71820 26/// /1805 10017 21008 30062 40177 57006 333 60007=
71821 46/// /2302 10001 20001 39779 40125 58014 333 6///7=
71823 26/// /1101 11135 21185 39714 40102 57034 333 60007=
71825 45666 71403 11308 21346 39479 40184 57019 333 6///7=
71826 26/// /0000 11342 21388 39978 40025 50002 333 60007=
71827 42974 42108 11128 21161 39830 40078 57031 333 6///7=
71829 26/// /2407 11005 21026 30009 40171 56006 333 60007=
71831 42774 72304 11004 21005 39848 40129 58018 333 6///7=
71832 26/// /2302 11010 21026 39799 40125 58023 333 60007=
71834 42574 82507 10000 21021 39705 40134 58023 333 6///7=
71840 26/// /2719 10038 20008 39749 40168 58012 333 60007=
71841 26/// /2203 11013 21039 39719 40116 58032 333 60007=
71842 42974 02206 11024 21048 39665 40137 58030 333 6///7=
71848 26/// /3309 10006 20000 333 60007=
71850 42980 22108 11029 21040 39647 40149 57031 333 6///7=
71851 26/// /2409 10034 21004 39821 40156 58017 333 60007=
71854 42974 02610 11004 21031 39646 40118 56027 333 6///7=
71855 26/// /2304 11028 21040 39615 40148 58028 333 60007=
71856 26/// /2105 11057 21079 39979 40235 53010 333 60007=
71857 26/// ///// 11031 21041 333 60007=
71858 26/// /3404 10022 21027 39878 40157 53022 333 60007=
71859 46/// ///// 11025 21039 39747 40152 58030 333 6///7=
71861 26/// /2706 10014 21001 39472 40197 50001 333 60007=
71862 47959 02308 11014 21020 39504 40209 57008 710// 333 6///7=
71865 26/// /3004 10031 21016 39526 40206 53008 333 60007=
71867 45966 03005 10023 21034 39850 40184 52029 333 6///7=
71868 26/// /2002 11025 21040 39753 40193 53021 333 60007=
71869 42974 03601 11044 21055 39696 40225 52020 333 6///7=
71871 47958 03304 11018 21045 39412 40223 52012 710// 333 6///7=
71874 26/// /3109 11149 21182 30235 40242 53018 333 60007=
71876 45961 03603 11026 21043 39558 40229 52013 333 6///7=
71877 42974 03302 10004 21030 38931 40215 52004 333 6///7=
71878 42966 02503 11042 21048 39145 40230 51004 333 6///7=
71880 42982 02606 10030 21038 39115 40217 52006 333 6///7=
71882 26/// /0604 11013 21019 39686 40227 53015 333 60007=
71883 26/// /0000 11059 21063 39403 40226 52011 333 60007=
71884 26/// /1802 11020 21021 30225 40271 56009 333 60007=
71886 26/// /2905 10005 21006 39588 40194 55001 333 60007=
71887 42980 01703 10029 21007 39773 40192 52017 333 6///7=
71888 26/// ///// 10004 21006 333 60007=
71889 42974 21602 10009 21007 39777 40196 51012 333 6///7=
71890 26/// /2412 10010 21017 30146 40175 56006 333 60007=
71892 42980 10809 10097 20038 30142 40147 53016 333 6///7=
71894 26/// /1209 10087 20046 30126 40135 51015 333 60007=
71896 45966 01802 11020 21051 39346 40176 52002 333 6///7=
71902 42974 72919 11173 21248 30122 40131 53001 333 6///7=
71904 26/// ///// 11004 21020 333 60007=
71905 26/// /3503 11031 21045 39299 40240 51008 333 60007=
71906 42974 71906 11199 21268 30041 40094 57033 333 6///7=
71911 466// 83010 11262 21300 30036 40094 52016 333 6///7=
71912 42474 73319 10012 21030 39914 40095 51027 333 6///7=
71915 42656 63511 11229 21259 39899 49982 50016 333 6///7=
71917 42974 71506 11346 21384 30066 40081 54000 333 6///7=
71918 45/// /3413 11272 39636 40067 52014 333 6///7=
71920 26/// /2209 10014 20003 30268 40274 56009 333 60007=
71922 42974 03602 10027 21040 39760 40225 52021 333 6///7=
71923 26/// /3440 11119 21138 39747 40195 51034 333 60007=
71924 42274 03309 11356 21396 30017 40112 51023 333 6///7=
71925 42559 33218 11205 21237 30145 40188 52027 333 6///7=
71926 42558 73331 11156 21182 30087 40111 53034 333 6///7=
71928 26/// /0000 11032 21069 39050 40210 51005 333 60007=
71931 46/// /2911 11057 21113 30195 40207 53015 333 6///7=
71932 26/// /1405 10019 20000 39764 40158 58018 333 60007=
71933 26/// /0000 11041 21055 39351 40186 58001 333 60007=
71934 42974 03601 11031 21045 39991 40249 52009 333 6///7=
71935 42974 01004 11026 21049 30038 40248 54005 333 6///7=
71936 42974 01110 11049 21068 39993 40255 56006 333 6///7=
71938 42874 82104 11167 21198 30230 40260 55002 333 6///7=
71940 42982 03604 11043 21069 39399 40212 57003 333 6///7=
71943 42974 00803 10048 21042 39374 40208 50001 333 6///7=
71944 26/// /3101 11035 21046 39358 40196 55002 333 60007=
71945 42974 02204 11002 21058 39731 40200 56004 333 6///7=
71946 42974 01204 10018 21040 39997 40210 58013 333 6///7=
71948 469// 81018 11156 21176 30075 40191 57037 333 6///7=
71949 26/// /1608 10061 21046 39259 40113 58004 333 60007=
71950 45966 02702 11027 21040 39541 40173 57002 333 6///7=
71951 42980 10110 10036 21007 39885 40150 55000 333 6///7=
71952 26/// /3002 11054 21064 39325 40177 57004 333 60007=
71954 26/// ///// 10033 21032 39822 40195 53026 333 60007=
71956 26/// /1303 10009 20003 39910 40143 58011 333 60007=
71960 467// 80816 11116 21137 39992 40126 57055 333 6///7=
71963 26/// ///// 11115 21140 39834 40241 51022 333 60007=
71964 42874 61616 10062 21005 39273 40118 58007 333 6///7=
71965 42780 73601 10076 21036 39456 40063 56007 333 6///7=
71966 26/// /3001 11005 21035 39593 40047 53003 333 60007=
71967 26/// /0405 10008 21052 30093 40200 56012 333 60007=
71968 457// 82607 11091 21115 39997 40061 57024 333 6///7=
71976 26/// /1921 11226 21250 39328 49972 56039 333 60007=
71978 46/// /0107 11096 21132 39760 40073 56013 333 6///7=
71979 26/// /2802 11075 21088 38550 40195 58004 333 60007=
71980 46/// /2201 11042 21059 333 6///7=
71981 26/// /2507 10011 21039 333 60007=
71982 26/// /2605 11012 21048 333 60007=
71984 26/// /1010 11137 21175 30180 40188 58026 333 60007=
71985 46/// ///// 11105 21135 30090 40096 56047 333 6///7=
71986 26/// /1606 10032 20003 333 60007=
72201 354// 20106 10211 20183 30139 40146 56011 90853 555 92109=
72202 32566 63103 10178 20167 30132 40141 56013 90853 555 92109=
72206 32766 62705 10089 20072 30157 40164 56008 90856 555 92109=
72208 11359 82806 10083 20072 30129 40146 58016 69907 751// 90856 333 96010 555 92109=
72211 32766 23603 10150 20128 30152 40166 56011 90853 555 92109=
72217 37948 00000 10022 20017 30025 40155 58023 710// 90853 333 96004 555 92109=
72226 35966 62808 10100 20044 30093 40167 58013 90853 555 92109=
72235 32966 00000 10067 20044 30096 40200 58013 90854 555 92109=
72240 35966 03605 10122 20067 30219 40229 58006 90853 555 92109=
72248 32966 02303 10061 20050 30120 40214 58010 90856 555 92109=
72253 32766 40303 10133 20106 39946 40223 58006 90851 555 92109=
72259 32966 02510 10100 20033 30008 40214 58011 90853 555 92109=
72270 32766 60608 10111 20039 38853 40178 55000 90851 555 92109=
72308 11356 81506 10128 20122 30132 40149 56038 60047 763// 90851 333 96010 555 92109=
72312 35766 40000 10056 21006 39809 40146 56024 90853 555 92109=
72314 32161 83504 10078 20067 39883 40142 56026 90852 555 92109=
72317 11224 80207 10050 20050 39812 40136 58027 60067 763// 90854 333 96010 555 92109=
72326 32766 82104 10100 21011 39781 40135 58020 90853 555 92109=
72327 32566 82907 10094 20044 39908 40158 58011 90853 555 92109=
72334 32966 22504 10061 20056 30079 40181 58014 90854 555 92109=
72344 35966 02607 10050 20006 30031 40200 58009 90853 555 92109=
72353 32966 03006 10061 21022 39750 40210 58004 90852 555 92109=
72363 35966 02608 10044 21006 38983 40225 50002 90853 555 92109=
72365 32966 60824 10089 20000 38406 40180 58011 90852 333 91031 555 92109=
72376 15766 80812 10100 21011 38318 40167 58004 69907 90853 555 92109=
72405 11358 80310 10067 20050 30154 40176 58028 60037 761// 90852 333 96010 555 92109=
72410 17356 8//04 10050 20044 39802 40152 56019 60107 762// 90854 333 96010 555 92109=
72414 32966 60000 10089 21050 39763 40125 58021 90854 555 92109=
72423 11466 82306 10083 20061 39967 40141 58016 60027 710// 90856 555 92109=
72425 32966 81103 10072 21028 39830 40130 58015 90851 555 92109=
72429 11364 82006 10067 20044 39764 40128 57018 60017 761// 90856 555 92109=
72438 11359 82309 10061 20050 39834 40125 58013 69907 761// 90854 333 96010 555 92109=
72445 35966 03509 10044 20011 39853 40179 51015 90854 555 92109=
72446 32966 03309 10033 20006 39825 40206 50010 90853 555 92109=
72451 35966 03507 10000 21033 39316 40237 50006 90852 555 92109=
72503 32666 80509 10050 20017 30203 40215 58023 90851 555 92109=
72506 35966 01409 10028 21006 30234 40254 57016 90853 555 92109=
72509 32966 61807 10022 21017 30236 40244 58014 90854 555 92109=
72513 32566 61004 10033 21022 39846 40195 56019 90854 555 92109=
72518 32966 61612 10056 21022 30109 40219 58015 90851 555 92109=
72519 32866 81606 10050 21061 30033 40185 58005 90854 555 92109=
72520 32866 81505 10067 21056 39710 40142 58016 90851 555 92109=
72524 11559 81704 10056 20044 39855 40139 58014 69957 761// 90851 333 96010 555 92109=
72528 12866 81407 10039 20011 39887 40160 58017 69957 90854 555 92109=
72532 32566 63407 10039 20006 39908 40154 50004 90854 555 92109=
72533 11248 81903 10056 20056 39824 40121 58010 69907 710// 90854 555 92109=
72534 11461 83311 10033 20011 39901 40132 50002 69907 761// 90853 555 92109=
72537 11116 81803 10044 20028 39890 40125 58008 69907 761// 90853 333 96010 555 92109=
72562 35966 03305 11033 21044 39258 40249 58001 90853 555 92109=
72565 32966 22306 10011 21044 38406 40225 58010 90853 555 92109=
72570 35966 02804 11106 21128 38143 40277 58008 90853 555 92109=
72572 32966 61311 10100 21094 38709 40140 58008 90854 555 92109=
72597 35966 03004 10094 20028 39704 40170 53013 90853 555 92109=
72605 35966 40000 10000 21050 30112 40238 56012 90851 555 92109=
72606 32966 62006 10017 21039 30222 40243 56008 90851 555 92109=
72617 32966 61813 10050 21044 30073 40203 56006 90854 333 91019 555 92109=
72635 37104 93603 10017 20011 39838 40130 50001 730// 90853 555 92109=
72639 37204 90000 10011 20006 39885 40141 57008 730// 90854 555 92109=
72645 35364 83505 10028 20011 39904 40155 51007 90853 555 92109=
72654 37958 02903 11044 21056 39766 40246 58003 710// 90855 555 92109=
72662 35966 00000 11017 21039 39111 40242 58004 90852 555 92109=
72677 32966 02307 10006 21033 38955 40220 56004 90853 555 92109=
72712 35966 61605 11028 21072 39974 40212 56014 90854 555 92109=
72734 37332 83103 10017 20011 39871 40137 58008 710// 90855 555 92109=
72747 35966 02205 11033 21044 39736 40178 58021 90855 555 92109=
72753 31958 02005 11061 21072 39873 40217 58012 710// 90853 555 92109=
72785 32966 20304 10044 21028 39311 40169 50005 90853 555 92109=
74486 32666 80806 10061 20039 30209 40219 57024 90851 555 92109=
78016 41464 80823 10155 20134 30146 40150 55024 76166 8472/=
78073 41565 51304 10212 20210 40130 78082 85800 333 82820 85630=
78388 41570 21704 10249 20203 30121 40130 70500 82800 333 59002 81822=
78397 41468 71003 10236 20206 30131 40136 72186 87400 333 59002 85818 85632=
78583 41475 70504 10265 20214 40149 70182 87800 333 0/200 58005 81819 87650=
78705 31560 21802 10218 20206 30130 40147 57012 70544 82530 333 56000 59005 82826=
78708 31560 2000 10214 20204 30119 40150 70544 81530 333 56000 58006 81625=
78720 31556 20208 10180 20149 39043 40168 58010 70444 82500 333 56100 58006 82628=
78866 42475 20908 10245 20204 30143 40148 57001 82200 333 58000 82817=
78897 44674 80705 10223 20211 40143 55006 700// 333 59002=
78962 41466 10000 10235 20196 30111 40131 70600 81102 333 00209 58000 81816=
78970 41465 11103 10235 20214 30101 40126 71000 81202 333 01209 59001 81815=
78988 21465 21209 10255 20213 30110 40121 5//// 70500 82240 333 59002 60007 82818/=